sensor_id;sensor_type;location;lat;lon;timestamp;temperature;humidity
78184;DHT22;67442;44.570;18.610;2023-05-14T00:02:22;23.30;70.80
78184;DHT22;67442;44.570;18.610;2023-05-14T00:04:50;23.30;70.70
78184;DHT22;67442;44.570;18.610;2023-05-14T00:07:17;23.30;70.60
78184;DHT22;67442;44.570;18.610;2023-05-14T00:09:44;23.30;70.70
78184;DHT22;67442;44.570;18.610;2023-05-14T00:12:12;23.30;70.60
78184;DHT22;67442;44.570;18.610;2023-05-14T00:14:39;23.30;70.70
78184;DHT22;67442;44.570;18.610;2023-05-14T00:17:06;23.30;70.60
78184;DHT22;67442;44.570;18.610;2023-05-14T00:19:38;23.30;70.60
78184;DHT22;67442;44.570;18.610;2023-05-14T00:22:07;23.30;70.70
78184;DHT22;67442;44.570;18.610;2023-05-14T00:24:34;23.30;70.60
78184;DHT22;67442;44.570;18.610;2023-05-14T00:27:02;23.30;70.60
78184;DHT22;67442;44.570;18.610;2023-05-14T00:29:29;23.30;70.60
78184;DHT22;67442;44.570;18.610;2023-05-14T00:31:56;23.30;70.60
78184;DHT22;67442;44.570;18.610;2023-05-14T00:34:26;23.30;70.60
78184;DHT22;67442;44.570;18.610;2023-05-14T00:36:54;23.30;70.50
78184;DHT22;67442;44.570;18.610;2023-05-14T00:39:21;23.30;70.60
78184;DHT22;67442;44.570;18.610;2023-05-14T00:41:49;23.30;70.50
78184;DHT22;67442;44.570;18.610;2023-05-14T00:44:15;23.30;70.50
78184;DHT22;67442;44.570;18.610;2023-05-14T00:46:43;23.30;70.60
78184;DHT22;67442;44.570;18.610;2023-05-14T00:49:10;23.30;70.50
78184;DHT22;67442;44.570;18.610;2023-05-14T00:51:39;23.30;70.50
78184;DHT22;67442;44.570;18.610;2023-05-14T00:54:06;23.30;70.50
78184;DHT22;67442;44.570;18.610;2023-05-14T00:56:34;23.30;70.50
78184;DHT22;67442;44.570;18.610;2023-05-14T00:59:05;23.30;71.30
78184;DHT22;67442;44.570;18.610;2023-05-14T01:01:36;23.30;70.40
78184;DHT22;67442;44.570;18.610;2023-05-14T01:04:04;23.30;70.40
78184;DHT22;67442;44.570;18.610;2023-05-14T01:09:41;23.30;70.40
78184;DHT22;67442;44.570;18.610;2023-05-14T01:17:15;23.30;70.40
78184;DHT22;67442;44.570;18.610;2023-05-14T01:20:01;23.30;71.20
78184;DHT22;67442;44.570;18.610;2023-05-14T01:22:29;23.30;70.40
78184;DHT22;67442;44.570;18.610;2023-05-14T01:25:00;23.30;70.50
78184;DHT22;67442;44.570;18.610;2023-05-14T01:33:02;23.30;70.40
78184;DHT22;67442;44.570;18.610;2023-05-14T01:35:32;23.40;70.50
78184;DHT22;67442;44.570;18.610;2023-05-14T01:38:02;23.30;70.40
78184;DHT22;67442;44.570;18.610;2023-05-14T01:40:32;23.30;70.60
78184;DHT22;67442;44.570;18.610;2023-05-14T01:43:02;23.30;70.40
78184;DHT22;67442;44.570;18.610;2023-05-14T01:45:30;23.30;70.40
78184;DHT22;67442;44.570;18.610;2023-05-14T01:47:57;23.30;70.40
78184;DHT22;67442;44.570;18.610;2023-05-14T01:50:24;23.30;70.40
78184;DHT22;67442;44.570;18.610;2023-05-14T01:52:51;23.40;70.50
78184;DHT22;67442;44.570;18.610;2023-05-14T01:55:22;23.30;70.30
78184;DHT22;67442;44.570;18.610;2023-05-14T01:57:52;23.30;70.30
78184;DHT22;67442;44.570;18.610;2023-05-14T02:00:23;23.30;70.40
78184;DHT22;67442;44.570;18.610;2023-05-14T02:02:53;23.40;70.40
78184;DHT22;67442;44.570;18.610;2023-05-14T02:05:24;23.30;70.50
78184;DHT22;67442;44.570;18.610;2023-05-14T02:07:51;23.30;70.60
78184;DHT22;67442;44.570;18.610;2023-05-14T02:10:19;23.40;70.70
78184;DHT22;67442;44.570;18.610;2023-05-14T02:12:50;23.40;70.60
78184;DHT22;67442;44.570;18.610;2023-05-14T02:15:17;23.30;70.40
78184;DHT22;67442;44.570;18.610;2023-05-14T02:17:44;23.30;70.40
78184;DHT22;67442;44.570;18.610;2023-05-14T02:20:16;23.30;70.30
78184;DHT22;67442;44.570;18.610;2023-05-14T02:22:44;23.40;70.30
78184;DHT22;67442;44.570;18.610;2023-05-14T02:25:14;23.30;70.30
78184;DHT22;67442;44.570;18.610;2023-05-14T02:27:41;23.30;70.30
78184;DHT22;67442;44.570;18.610;2023-05-14T02:30:10;23.40;70.30
78184;DHT22;67442;44.570;18.610;2023-05-14T02:32:38;23.40;70.30
78184;DHT22;67442;44.570;18.610;2023-05-14T02:35:06;23.30;70.30
78184;DHT22;67442;44.570;18.610;2023-05-14T02:37:33;23.30;70.30
78184;DHT22;67442;44.570;18.610;2023-05-14T02:40:00;23.40;70.30
78184;DHT22;67442;44.570;18.610;2023-05-14T02:42:28;23.30;70.20
78184;DHT22;67442;44.570;18.610;2023-05-14T02:44:55;23.30;70.20
78184;DHT22;67442;44.570;18.610;2023-05-14T02:47:27;23.30;70.30
78184;DHT22;67442;44.570;18.610;2023-05-14T02:49:54;23.40;70.30
78184;DHT22;67442;44.570;18.610;2023-05-14T02:52:21;23.40;70.20
78184;DHT22;67442;44.570;18.610;2023-05-14T02:54:49;23.40;70.20
78184;DHT22;67442;44.570;18.610;2023-05-14T02:57:20;23.40;70.20
78184;DHT22;67442;44.570;18.610;2023-05-14T02:59:47;23.40;70.20
78184;DHT22;67442;44.570;18.610;2023-05-14T03:02:18;23.40;70.20
78184;DHT22;67442;44.570;18.610;2023-05-14T03:04:45;23.40;70.20
78184;DHT22;67442;44.570;18.610;2023-05-14T03:07:13;23.40;70.30
78184;DHT22;67442;44.570;18.610;2023-05-14T03:09:40;23.40;70.40
78184;DHT22;67442;44.570;18.610;2023-05-14T03:12:08;23.40;70.40
78184;DHT22;67442;44.570;18.610;2023-05-14T03:14:35;23.40;70.30
78184;DHT22;67442;44.570;18.610;2023-05-14T03:17:02;23.40;70.20
78184;DHT22;67442;44.570;18.610;2023-05-14T03:19:30;23.40;70.30
78184;DHT22;67442;44.570;18.610;2023-05-14T03:22:01;23.40;70.20
78184;DHT22;67442;44.570;18.610;2023-05-14T03:24:28;23.40;70.30
78184;DHT22;67442;44.570;18.610;2023-05-14T03:26:57;23.40;70.30
78184;DHT22;67442;44.570;18.610;2023-05-14T03:29:27;23.30;70.30
78184;DHT22;67442;44.570;18.610;2023-05-14T03:31:55;23.30;70.20
78184;DHT22;67442;44.570;18.610;2023-05-14T03:34:23;23.40;70.20
78184;DHT22;67442;44.570;18.610;2023-05-14T03:36:49;23.40;70.20
78184;DHT22;67442;44.570;18.610;2023-05-14T03:39:17;23.40;70.10
78184;DHT22;67442;44.570;18.610;2023-05-14T03:41:47;23.30;70.00
78184;DHT22;67442;44.570;18.610;2023-05-14T03:44:14;23.40;70.10
78184;DHT22;67442;44.570;18.610;2023-05-14T03:46:45;23.40;70.00
78184;DHT22;67442;44.570;18.610;2023-05-14T03:49:12;23.40;70.10
78184;DHT22;67442;44.570;18.610;2023-05-14T03:51:39;23.40;70.00
78184;DHT22;67442;44.570;18.610;2023-05-14T03:54:10;23.30;70.00
78184;DHT22;67442;44.570;18.610;2023-05-14T03:56:41;23.40;70.00
78184;DHT22;67442;44.570;18.610;2023-05-14T03:59:08;23.30;70.00
78184;DHT22;67442;44.570;18.610;2023-05-14T04:01:36;23.40;70.00
78184;DHT22;67442;44.570;18.610;2023-05-14T04:04:03;23.40;70.00
78184;DHT22;67442;44.570;18.610;2023-05-14T04:06:34;23.40;70.00
78184;DHT22;67442;44.570;18.610;2023-05-14T04:09:02;23.40;69.90
78184;DHT22;67442;44.570;18.610;2023-05-14T04:11:30;23.30;70.00
78184;DHT22;67442;44.570;18.610;2023-05-14T04:13:57;23.30;69.90
78184;DHT22;67442;44.570;18.610;2023-05-14T04:16:24;23.40;70.00
78184;DHT22;67442;44.570;18.610;2023-05-14T04:18:52;23.30;69.90
78184;DHT22;67442;44.570;18.610;2023-05-14T04:21:18;23.40;70.00
78184;DHT22;67442;44.570;18.610;2023-05-14T04:23:49;23.40;70.00
78184;DHT22;67442;44.570;18.610;2023-05-14T04:26:17;23.40;69.90
78184;DHT22;67442;44.570;18.610;2023-05-14T04:28:44;23.40;69.90
78184;DHT22;67442;44.570;18.610;2023-05-14T04:31:11;23.40;69.90
78184;DHT22;67442;44.570;18.610;2023-05-14T04:33:39;23.40;69.80
78184;DHT22;67442;44.570;18.610;2023-05-14T04:36:06;23.40;69.80
78184;DHT22;67442;44.570;18.610;2023-05-14T04:38:34;23.40;69.90
78184;DHT22;67442;44.570;18.610;2023-05-14T04:41:05;23.40;69.90
78184;DHT22;67442;44.570;18.610;2023-05-14T04:43:32;23.40;69.90
78184;DHT22;67442;44.570;18.610;2023-05-14T04:45:59;23.40;69.90
78184;DHT22;67442;44.570;18.610;2023-05-14T04:48:27;23.40;69.70
78184;DHT22;67442;44.570;18.610;2023-05-14T04:50:54;23.40;69.70
78184;DHT22;67442;44.570;18.610;2023-05-14T04:53:21;23.40;69.90
78184;DHT22;67442;44.570;18.610;2023-05-14T04:55:48;23.40;70.00
78184;DHT22;67442;44.570;18.610;2023-05-14T04:58:16;23.40;70.00
78184;DHT22;67442;44.570;18.610;2023-05-14T05:00:43;23.40;70.00
78184;DHT22;67442;44.570;18.610;2023-05-14T05:03:10;23.40;70.00
78184;DHT22;67442;44.570;18.610;2023-05-14T05:05:38;23.40;69.90
78184;DHT22;67442;44.570;18.610;2023-05-14T05:08:09;23.40;69.90
78184;DHT22;67442;44.570;18.610;2023-05-14T05:10:36;23.40;69.70
78184;DHT22;67442;44.570;18.610;2023-05-14T05:13:04;23.40;69.80
78184;DHT22;67442;44.570;18.610;2023-05-14T05:15:31;23.40;69.70
78184;DHT22;67442;44.570;18.610;2023-05-14T05:17:58;23.40;69.70
78184;DHT22;67442;44.570;18.610;2023-05-14T05:20:25;23.40;69.70
78184;DHT22;67442;44.570;18.610;2023-05-14T05:22:57;23.40;69.70
78184;DHT22;67442;44.570;18.610;2023-05-14T05:25:25;23.40;69.60
78184;DHT22;67442;44.570;18.610;2023-05-14T05:27:56;23.40;69.60
78184;DHT22;67442;44.570;18.610;2023-05-14T05:30:23;23.40;69.70
78184;DHT22;67442;44.570;18.610;2023-05-14T05:32:54;23.40;69.70
78184;DHT22;67442;44.570;18.610;2023-05-14T05:35:22;23.40;69.80
78184;DHT22;67442;44.570;18.610;2023-05-14T05:37:50;23.40;69.80
78184;DHT22;67442;44.570;18.610;2023-05-14T05:40:17;23.40;69.70
78184;DHT22;67442;44.570;18.610;2023-05-14T05:42:45;23.40;69.60
78184;DHT22;67442;44.570;18.610;2023-05-14T05:45:12;23.40;69.70
78184;DHT22;67442;44.570;18.610;2023-05-14T05:47:40;23.40;69.60
78184;DHT22;67442;44.570;18.610;2023-05-14T05:50:08;23.40;69.60
78184;DHT22;67442;44.570;18.610;2023-05-14T05:52:41;23.40;69.60
78184;DHT22;67442;44.570;18.610;2023-05-14T05:55:10;23.40;69.60
78184;DHT22;67442;44.570;18.610;2023-05-14T05:57:41;23.40;69.60
78184;DHT22;67442;44.570;18.610;2023-05-14T06:00:13;23.40;69.50
78184;DHT22;67442;44.570;18.610;2023-05-14T06:02:40;23.40;69.50
78184;DHT22;67442;44.570;18.610;2023-05-14T06:05:09;23.40;69.50
78184;DHT22;67442;44.570;18.610;2023-05-14T06:07:40;23.40;69.50
78184;DHT22;67442;44.570;18.610;2023-05-14T06:10:11;23.40;69.60
78184;DHT22;67442;44.570;18.610;2023-05-14T06:12:39;23.40;69.60
78184;DHT22;67442;44.570;18.610;2023-05-14T06:15:10;23.40;69.70
78184;DHT22;67442;44.570;18.610;2023-05-14T06:17:37;23.40;70.10
78184;DHT22;67442;44.570;18.610;2023-05-14T06:20:09;23.40;69.80
78184;DHT22;67442;44.570;18.610;2023-05-14T06:22:37;23.40;69.60
78184;DHT22;67442;44.570;18.610;2023-05-14T06:25:05;23.40;69.60
78184;DHT22;67442;44.570;18.610;2023-05-14T06:27:34;23.40;69.50
78184;DHT22;67442;44.570;18.610;2023-05-14T06:30:01;23.40;69.60
78184;DHT22;67442;44.570;18.610;2023-05-14T06:32:28;23.40;69.70
78184;DHT22;67442;44.570;18.610;2023-05-14T06:34:59;23.40;69.70
78184;DHT22;67442;44.570;18.610;2023-05-14T06:37:26;23.40;69.70
78184;DHT22;67442;44.570;18.610;2023-05-14T06:39:54;23.40;69.60
78184;DHT22;67442;44.570;18.610;2023-05-14T06:42:21;23.40;69.50
78184;DHT22;67442;44.570;18.610;2023-05-14T06:44:49;23.40;69.50
78184;DHT22;67442;44.570;18.610;2023-05-14T06:47:16;23.40;69.40
78184;DHT22;67442;44.570;18.610;2023-05-14T06:49:47;23.40;69.30
78184;DHT22;67442;44.570;18.610;2023-05-14T06:52:14;23.40;69.30
78184;DHT22;67442;44.570;18.610;2023-05-14T06:54:45;23.40;69.30
78184;DHT22;67442;44.570;18.610;2023-05-14T06:57:12;23.40;69.50
78184;DHT22;67442;44.570;18.610;2023-05-14T06:59:40;23.40;69.50
78184;DHT22;67442;44.570;18.610;2023-05-14T07:02:07;23.40;69.50
78184;DHT22;67442;44.570;18.610;2023-05-14T07:04:34;23.40;69.40
78184;DHT22;67442;44.570;18.610;2023-05-14T07:07:02;23.40;69.30
78184;DHT22;67442;44.570;18.610;2023-05-14T07:09:31;23.40;69.20
78184;DHT22;67442;44.570;18.610;2023-05-14T07:11:58;23.40;69.20
78184;DHT22;67442;44.570;18.610;2023-05-14T07:14:25;23.40;69.10
78184;DHT22;67442;44.570;18.610;2023-05-14T07:16:53;23.40;69.10
78184;DHT22;67442;44.570;18.610;2023-05-14T07:19:20;23.40;69.10
78184;DHT22;67442;44.570;18.610;2023-05-14T07:21:48;23.40;69.00
78184;DHT22;67442;44.570;18.610;2023-05-14T07:24:15;23.40;68.90
78184;DHT22;67442;44.570;18.610;2023-05-14T07:26:42;23.40;68.90
78184;DHT22;67442;44.570;18.610;2023-05-14T07:29:10;23.40;68.90
78184;DHT22;67442;44.570;18.610;2023-05-14T07:31:41;23.40;68.90
78184;DHT22;67442;44.570;18.610;2023-05-14T07:34:08;23.40;68.90
78184;DHT22;67442;44.570;18.610;2023-05-14T07:36:40;23.40;68.90
78184;DHT22;67442;44.570;18.610;2023-05-14T07:39:07;23.40;68.40
78184;DHT22;67442;44.570;18.610;2023-05-14T07:41:38;23.40;68.50
78184;DHT22;67442;44.570;18.610;2023-05-14T07:44:06;23.40;68.50
78184;DHT22;67442;44.570;18.610;2023-05-14T07:46:33;23.40;68.60
78184;DHT22;67442;44.570;18.610;2023-05-14T07:49:00;23.40;68.70
78184;DHT22;67442;44.570;18.610;2023-05-14T07:51:28;23.40;68.80
78184;DHT22;67442;44.570;18.610;2023-05-14T07:53:55;23.40;68.80
78184;DHT22;67442;44.570;18.610;2023-05-14T07:56:22;23.40;68.80
78184;DHT22;67442;44.570;18.610;2023-05-14T07:58:50;23.30;68.60
78184;DHT22;67442;44.570;18.610;2023-05-14T08:01:17;23.40;68.80
78184;DHT22;67442;44.570;18.610;2023-05-14T08:03:47;23.40;68.80
78184;DHT22;67442;44.570;18.610;2023-05-14T08:06:15;23.40;68.80
78184;DHT22;67442;44.570;18.610;2023-05-14T08:08:46;23.40;68.70
78184;DHT22;67442;44.570;18.610;2023-05-14T08:11:13;23.30;68.40
78184;DHT22;67442;44.570;18.610;2023-05-14T08:13:40;23.40;68.60
78184;DHT22;67442;44.570;18.610;2023-05-14T08:16:07;23.40;68.40
78184;DHT22;67442;44.570;18.610;2023-05-14T08:18:35;23.40;67.90
78184;DHT22;67442;44.570;18.610;2023-05-14T08:21:02;23.40;68.30
78184;DHT22;67442;44.570;18.610;2023-05-14T08:23:29;23.30;68.20
78184;DHT22;67442;44.570;18.610;2023-05-14T08:25:56;23.40;68.40
78184;DHT22;67442;44.570;18.610;2023-05-14T08:28:24;23.40;68.30
78184;DHT22;67442;44.570;18.610;2023-05-14T08:30:55;23.40;68.40
78184;DHT22;67442;44.570;18.610;2023-05-14T08:33:23;23.40;68.40
78184;DHT22;67442;44.570;18.610;2023-05-14T08:35:52;23.30;68.10
78184;DHT22;67442;44.570;18.610;2023-05-14T08:38:20;23.40;67.70
78184;DHT22;67442;44.570;18.610;2023-05-14T08:40:48;23.30;68.00
78184;DHT22;67442;44.570;18.610;2023-05-14T08:43:34;23.30;68.10
78184;DHT22;67442;44.570;18.610;2023-05-14T08:46:03;23.30;68.00
78184;DHT22;67442;44.570;18.610;2023-05-14T08:48:35;23.30;68.00
78184;DHT22;67442;44.570;18.610;2023-05-14T08:51:03;23.30;68.00
78184;DHT22;67442;44.570;18.610;2023-05-14T08:53:34;23.30;68.00
78184;DHT22;67442;44.570;18.610;2023-05-14T08:56:04;23.30;67.90
78184;DHT22;67442;44.570;18.610;2023-05-14T08:58:33;23.30;67.80
78184;DHT22;67442;44.570;18.610;2023-05-14T09:01:00;23.30;67.70
78184;DHT22;67442;44.570;18.610;2023-05-14T09:03:28;23.30;67.60
78184;DHT22;67442;44.570;18.610;2023-05-14T09:05:59;23.30;67.60
78184;DHT22;67442;44.570;18.610;2023-05-14T09:08:27;23.30;67.60
78184;DHT22;67442;44.570;18.610;2023-05-14T09:10:53;23.30;67.60
78184;DHT22;67442;44.570;18.610;2023-05-14T09:13:24;23.30;67.50
78184;DHT22;67442;44.570;18.610;2023-05-14T09:15:52;23.30;67.50
78184;DHT22;67442;44.570;18.610;2023-05-14T09:18:20;23.30;67.20
78184;DHT22;67442;44.570;18.610;2023-05-14T09:20:47;23.30;66.80
78184;DHT22;67442;44.570;18.610;2023-05-14T09:23:14;23.30;67.20
78184;DHT22;67442;44.570;18.610;2023-05-14T09:25:41;23.30;67.30
78184;DHT22;67442;44.570;18.610;2023-05-14T09:28:09;23.30;67.40
78184;DHT22;67442;44.570;18.610;2023-05-14T09:30:36;23.30;67.40
78184;DHT22;67442;44.570;18.610;2023-05-14T09:33:07;23.30;68.10
78184;DHT22;67442;44.570;18.610;2023-05-14T09:35:37;23.30;67.40
78184;DHT22;67442;44.570;18.610;2023-05-14T09:38:06;23.30;67.30
78184;DHT22;67442;44.570;18.610;2023-05-14T09:40:33;23.30;67.30
78184;DHT22;67442;44.570;18.610;2023-05-14T09:43:01;23.30;67.30
78184;DHT22;67442;44.570;18.610;2023-05-14T09:45:29;23.30;67.30
78184;DHT22;67442;44.570;18.610;2023-05-14T09:47:59;23.30;67.20
78184;DHT22;67442;44.570;18.610;2023-05-14T09:50:26;23.30;67.30
78184;DHT22;67442;44.570;18.610;2023-05-14T09:52:55;23.30;66.90
78184;DHT22;67442;44.570;18.610;2023-05-14T09:55:22;23.30;66.60
78184;DHT22;67442;44.570;18.610;2023-05-14T09:57:51;23.30;67.00
78184;DHT22;67442;44.570;18.610;2023-05-14T10:00:19;23.30;67.10
78184;DHT22;67442;44.570;18.610;2023-05-14T10:02:48;23.30;67.10
78184;DHT22;67442;44.570;18.610;2023-05-14T10:05:22;23.30;67.20
78184;DHT22;67442;44.570;18.610;2023-05-14T10:07:52;23.30;67.30
78184;DHT22;67442;44.570;18.610;2023-05-14T10:10:25;23.30;67.50
78184;DHT22;67442;44.570;18.610;2023-05-14T10:13:03;23.30;67.60
78184;DHT22;67442;44.570;18.610;2023-05-14T10:15:36;23.30;67.50
78184;DHT22;67442;44.570;18.610;2023-05-14T10:18:09;23.30;67.60
78184;DHT22;67442;44.570;18.610;2023-05-14T10:20:37;23.30;67.70
78184;DHT22;67442;44.570;18.610;2023-05-14T10:23:04;23.30;67.60
78184;DHT22;67442;44.570;18.610;2023-05-14T10:25:36;23.30;67.70
78184;DHT22;67442;44.570;18.610;2023-05-14T10:28:04;23.30;67.80
78184;DHT22;67442;44.570;18.610;2023-05-14T10:30:31;23.30;67.80
78184;DHT22;67442;44.570;18.610;2023-05-14T10:33:10;23.30;67.80
78184;DHT22;67442;44.570;18.610;2023-05-14T10:38:27;23.30;67.70
78184;DHT22;67442;44.570;18.610;2023-05-14T10:41:09;23.30;67.70
78184;DHT22;67442;44.570;18.610;2023-05-14T10:43:39;23.20;67.60
78184;DHT22;67442;44.570;18.610;2023-05-14T10:46:07;23.30;67.70
78184;DHT22;67442;44.570;18.610;2023-05-14T10:48:36;23.30;68.40
78184;DHT22;67442;44.570;18.610;2023-05-14T10:51:07;23.20;67.50
78184;DHT22;67442;44.570;18.610;2023-05-14T10:53:39;23.30;67.50
78184;DHT22;67442;44.570;18.610;2023-05-14T10:56:12;23.30;67.60
78184;DHT22;67442;44.570;18.610;2023-05-14T10:58:44;23.30;67.50
78184;DHT22;67442;44.570;18.610;2023-05-14T11:01:12;23.30;67.50
78184;DHT22;67442;44.570;18.610;2023-05-14T11:21:46;23.20;66.20
78184;DHT22;67442;44.570;18.610;2023-05-14T11:24:13;23.10;68.30
78184;DHT22;67442;44.570;18.610;2023-05-14T11:26:40;23.10;68.00
78184;DHT22;67442;44.570;18.610;2023-05-14T11:29:08;23.20;67.80
78184;DHT22;67442;44.570;18.610;2023-05-14T11:31:35;23.20;67.50
78184;DHT22;67442;44.570;18.610;2023-05-14T11:34:07;23.20;67.40
78184;DHT22;67442;44.570;18.610;2023-05-14T11:36:38;23.20;67.30
78184;DHT22;67442;44.570;18.610;2023-05-14T11:39:17;23.30;67.50
78184;DHT22;67442;44.570;18.610;2023-05-14T11:41:44;23.20;67.20
78184;DHT22;67442;44.570;18.610;2023-05-14T15:22:21;23.40;70.70
78184;DHT22;67442;44.570;18.610;2023-05-14T15:24:49;23.40;70.70
78184;DHT22;67442;44.570;18.610;2023-05-14T15:27:16;23.40;70.80
78184;DHT22;67442;44.570;18.610;2023-05-14T15:29:43;23.40;71.60
78184;DHT22;67442;44.570;18.610;2023-05-14T15:32:11;23.40;71.70
78184;DHT22;67442;44.570;18.610;2023-05-14T15:34:39;23.40;71.40
78184;DHT22;67442;44.570;18.610;2023-05-14T15:37:06;23.40;71.30
78184;DHT22;67442;44.570;18.610;2023-05-14T15:39:34;23.40;71.40
78184;DHT22;67442;44.570;18.610;2023-05-14T15:42:05;23.40;72.20
78184;DHT22;67442;44.570;18.610;2023-05-14T15:44:33;23.40;71.90
78184;DHT22;67442;44.570;18.610;2023-05-14T15:47:05;23.40;71.50
78184;DHT22;67442;44.570;18.610;2023-05-14T15:49:32;23.40;71.40
78184;DHT22;67442;44.570;18.610;2023-05-14T15:52:00;23.40;71.40
78184;DHT22;67442;44.570;18.610;2023-05-14T15:54:27;23.40;71.40
78184;DHT22;67442;44.570;18.610;2023-05-14T15:56:54;23.40;71.50
78184;DHT22;67442;44.570;18.610;2023-05-14T15:59:21;23.40;71.50
78184;DHT22;67442;44.570;18.610;2023-05-14T16:01:50;23.40;72.30
78184;DHT22;67442;44.570;18.610;2023-05-14T16:04:17;23.40;72.50
78184;DHT22;67442;44.570;18.610;2023-05-14T16:06:45;23.40;72.10
78184;DHT22;67442;44.570;18.610;2023-05-14T16:09:15;23.40;71.80
78184;DHT22;67442;44.570;18.610;2023-05-14T16:11:43;23.40;71.60
78184;DHT22;67442;44.570;18.610;2023-05-14T16:14:10;23.40;71.60
78184;DHT22;67442;44.570;18.610;2023-05-14T16:16:38;23.40;71.60
78184;DHT22;67442;44.570;18.610;2023-05-14T16:19:05;23.40;71.60
78184;DHT22;67442;44.570;18.610;2023-05-14T16:21:32;23.40;71.60
78184;DHT22;67442;44.570;18.610;2023-05-14T16:24:00;23.40;71.70
78184;DHT22;67442;44.570;18.610;2023-05-14T16:26:33;23.40;71.60
78184;DHT22;67442;44.570;18.610;2023-05-14T16:29:01;23.40;71.60
78184;DHT22;67442;44.570;18.610;2023-05-14T16:31:28;23.40;72.40
78184;DHT22;67442;44.570;18.610;2023-05-14T16:33:57;23.40;72.30
78184;DHT22;67442;44.570;18.610;2023-05-14T16:36:24;23.40;72.50
78184;DHT22;67442;44.570;18.610;2023-05-14T16:39:11;23.40;72.00
78184;DHT22;67442;44.570;18.610;2023-05-14T16:41:38;23.40;71.70
78184;DHT22;67442;44.570;18.610;2023-05-14T16:44:06;23.40;72.30
78184;DHT22;67442;44.570;18.610;2023-05-14T16:46:37;23.40;72.10
78184;DHT22;67442;44.570;18.610;2023-05-14T16:49:08;23.40;72.10
78184;DHT22;67442;44.570;18.610;2023-05-14T16:51:35;23.40;72.10
78184;DHT22;67442;44.570;18.610;2023-05-14T16:54:10;23.50;72.70
78184;DHT22;67442;44.570;18.610;2023-05-14T16:56:38;23.50;72.50
78184;DHT22;67442;44.570;18.610;2023-05-14T16:59:05;23.50;72.60
78184;DHT22;67442;44.570;18.610;2023-05-14T17:01:33;23.50;72.60
78184;DHT22;67442;44.570;18.610;2023-05-14T17:04:00;23.50;72.40
78184;DHT22;67442;44.570;18.610;2023-05-14T17:06:28;23.40;72.40
78184;DHT22;67442;44.570;18.610;2023-05-14T17:08:55;23.50;72.30
78184;DHT22;67442;44.570;18.610;2023-05-14T17:11:22;23.40;72.20
78184;DHT22;67442;44.570;18.610;2023-05-14T17:13:49;23.50;72.10
78184;DHT22;67442;44.570;18.610;2023-05-14T17:16:16;23.40;72.20
78184;DHT22;67442;44.570;18.610;2023-05-14T17:18:49;23.40;71.90
78184;DHT22;67442;44.570;18.610;2023-05-14T17:21:17;23.40;71.70
78184;DHT22;67442;44.570;18.610;2023-05-14T17:23:44;23.40;71.60
78184;DHT22;67442;44.570;18.610;2023-05-14T17:26:15;23.40;71.30
78184;DHT22;67442;44.570;18.610;2023-05-14T17:28:43;23.40;71.30
78184;DHT22;67442;44.570;18.610;2023-05-14T17:31:10;23.40;70.90
78184;DHT22;67442;44.570;18.610;2023-05-14T17:33:41;23.40;70.60
78184;DHT22;67442;44.570;18.610;2023-05-14T17:36:09;23.50;70.50
78184;DHT22;67442;44.570;18.610;2023-05-14T17:38:35;23.40;69.20
78184;DHT22;67442;44.570;18.610;2023-05-14T17:41:04;23.40;69.30
78184;DHT22;67442;44.570;18.610;2023-05-14T17:43:31;23.40;69.20
78184;DHT22;67442;44.570;18.610;2023-05-14T17:45:59;23.40;68.40
78184;DHT22;67442;44.570;18.610;2023-05-14T17:48:26;23.40;68.70
78184;DHT22;67442;44.570;18.610;2023-05-14T17:50:53;23.40;68.90
78184;DHT22;67442;44.570;18.610;2023-05-14T17:53:20;23.40;68.50
78184;DHT22;67442;44.570;18.610;2023-05-14T17:55:47;23.40;67.90
78184;DHT22;67442;44.570;18.610;2023-05-14T17:58:19;23.40;67.30
78184;DHT22;67442;44.570;18.610;2023-05-14T18:00:46;23.40;67.50
78184;DHT22;67442;44.570;18.610;2023-05-14T18:03:14;23.40;67.80
78184;DHT22;67442;44.570;18.610;2023-05-14T18:05:41;23.40;67.60
78184;DHT22;67442;44.570;18.610;2023-05-14T18:08:08;23.30;68.20
78184;DHT22;67442;44.570;18.610;2023-05-14T18:10:39;23.30;68.60
78184;DHT22;67442;44.570;18.610;2023-05-14T18:13:06;23.30;68.80
78184;DHT22;67442;44.570;18.610;2023-05-14T18:15:35;23.30;69.00
78184;DHT22;67442;44.570;18.610;2023-05-14T18:18:02;23.30;69.30
78184;DHT22;67442;44.570;18.610;2023-05-14T18:20:30;23.30;69.30
78184;DHT22;67442;44.570;18.610;2023-05-14T18:22:57;23.30;70.20
78184;DHT22;67442;44.570;18.610;2023-05-14T18:25:25;23.30;69.40
78184;DHT22;67442;44.570;18.610;2023-05-14T18:27:52;23.30;69.50
78184;DHT22;67442;44.570;18.610;2023-05-14T18:30:23;23.40;70.40
78184;DHT22;67442;44.570;18.610;2023-05-14T18:32:55;23.40;69.60
78184;DHT22;67442;44.570;18.610;2023-05-14T18:35:22;23.40;69.60
78184;DHT22;67442;44.570;18.610;2023-05-14T18:37:49;23.40;69.70
78184;DHT22;67442;44.570;18.610;2023-05-14T18:40:17;23.40;69.70
78184;DHT22;67442;44.570;18.610;2023-05-14T18:42:44;23.40;69.70
78184;DHT22;67442;44.570;18.610;2023-05-14T18:45:11;23.40;69.70
78184;DHT22;67442;44.570;18.610;2023-05-14T18:47:38;23.40;69.70
78184;DHT22;67442;44.570;18.610;2023-05-14T18:50:07;23.40;69.70
78184;DHT22;67442;44.570;18.610;2023-05-14T18:52:35;23.40;69.90
78184;DHT22;67442;44.570;18.610;2023-05-14T18:55:02;23.40;70.00
78184;DHT22;67442;44.570;18.610;2023-05-14T18:57:28;23.50;70.20
78184;DHT22;67442;44.570;18.610;2023-05-14T18:59:57;23.50;70.30
78184;DHT22;67442;44.570;18.610;2023-05-14T19:02:29;23.50;70.40
78184;DHT22;67442;44.570;18.610;2023-05-14T19:04:57;23.40;70.40
78184;DHT22;67442;44.570;18.610;2023-05-14T19:07:24;23.50;70.60
78184;DHT22;67442;44.570;18.610;2023-05-14T19:09:51;23.50;70.70
78184;DHT22;67442;44.570;18.610;2023-05-14T19:12:18;23.50;70.70
78184;DHT22;67442;44.570;18.610;2023-05-14T19:14:49;23.50;70.70
78184;DHT22;67442;44.570;18.610;2023-05-14T19:17:16;23.50;70.90
78184;DHT22;67442;44.570;18.610;2023-05-14T19:19:43;23.50;70.90
78184;DHT22;67442;44.570;18.610;2023-05-14T19:22:11;23.50;71.00
78184;DHT22;67442;44.570;18.610;2023-05-14T19:24:38;23.50;71.00
78184;DHT22;67442;44.570;18.610;2023-05-14T19:27:06;23.50;71.10
78184;DHT22;67442;44.570;18.610;2023-05-14T19:29:34;23.50;71.20
78184;DHT22;67442;44.570;18.610;2023-05-14T19:32:02;23.60;71.30
78184;DHT22;67442;44.570;18.610;2023-05-14T19:34:29;23.50;71.40
78184;DHT22;67442;44.570;18.610;2023-05-14T19:36:56;23.60;71.60